Time;durP1;ratioP1;P1;durP2;ratioP2;P2;SDS_P1;SDS_P2;PMS_P1;PMS_P2;Temp;Humidity;BMP_temperature;BMP_pressure;BME280_temperature;BME280_humidity;BME280_pressure;Samples;Min_cycle;Max_cycle;Signal;HPM_P1;HPM_P2
2023/12/07 06:02:36;;;;;;;16.17;9.25;;;2.40;84.50;;;;;;4054030;29;20087;-77
2023/12/07 06:04:38;;;;;;;12.55;7.90;;;2.40;84.60;;;;;;4055639;29;20056;-79
2023/12/07 06:06:40;;;;;;;11.77;7.97;;;2.40;84.70;;;;;;4055681;29;20044;-77
2023/12/07 06:08:41;;;;;;;12.07;7.70;;;2.30;84.50;;;;;;4058367;29;20056;-76
2023/12/07 06:10:43;;;;;;;13.73;8.07;;;2.30;84.50;;;;;;4066875;29;20104;-74
2023/12/07 06:12:45;;;;;;;12.32;8.05;;;2.40;84.20;;;;;;4066566;29;20108;-74
2023/12/07 06:14:47;;;;;;;12.75;7.70;;;2.30;83.90;;;;;;4066342;29;20081;-75
2023/12/07 06:16:49;;;;;;;11.55;7.50;;;2.30;84.00;;;;;;4066113;29;20061;-73
2023/12/07 06:18:51;;;;;;;11.73;7.20;;;2.30;84.20;;;;;;4058294;29;20545;-76
2023/12/07 06:20:53;;;;;;;12.88;7.35;;;2.30;84.00;;;;;;4058344;29;20055;-74
2023/12/07 06:22:55;;;;;;;11.52;7.07;;;2.30;84.20;;;;;;4061623;29;20482;-75
2023/12/07 06:24:57;;;;;;;11.55;7.10;;;2.30;83.90;;;;;;4065483;29;20052;-74
2023/12/07 06:26:59;;;;;;;11.70;7.25;;;2.30;83.50;;;;;;4064820;29;20702;-75
2023/12/07 06:29:01;;;;;;;11.82;7.15;;;2.20;83.30;;;;;;4061777;29;20055;-75
2023/12/07 06:31:06;;;;;;;11.80;7.63;;;2.20;83.20;;;;;;4059154;29;20447;-73
2023/12/07 06:33:08;;;;;;;13.85;7.63;;;2.20;82.80;;;;;;4057317;29;20052;-76
2023/12/07 06:35:13;;;;;;;15.52;8.05;;;2.10;82.80;;;;;;4066382;29;20056;-76
2023/12/07 06:37:15;;;;;;;13.93;7.57;;;2.10;82.70;;;;;;4067003;29;20053;-76
2023/12/07 06:39:16;;;;;;;14.60;8.32;;;2.10;82.80;;;;;;4062425;29;20048;-78
2023/12/07 06:41:18;;;;;;;12.20;7.43;;;2.10;82.70;;;;;;4062208;29;20077;-78
2023/12/07 06:43:20;;;;;;;13.50;8.13;;;2.00;83.00;;;;;;4064739;29;20124;-78
2023/12/07 06:45:22;;;;;;;15.55;8.23;;;1.90;83.00;;;;;;4061539;29;20426;-79
2023/12/07 06:47:23;;;;;;;13.93;8.32;;;1.90;83.30;;;;;;4056131;29;20052;-75
2023/12/07 06:49:24;;;;;;;15.18;8.57;;;1.80;83.40;;;;;;4053980;29;20052;-73
2023/12/07 06:51:27;;;;;;;14.52;8.65;;;1.80;83.60;;;;;;4055098;29;20451;-75
2023/12/07 06:53:31;;;;;;;13.25;8.00;;;1.90;84.00;;;;;;4055072;29;20060;-76
2023/12/07 06:55:32;;;;;;;15.93;8.85;;;1.90;84.10;;;;;;4055651;29;20049;-76
2023/12/07 06:57:34;;;;;;;14.00;8.40;;;1.80;83.60;;;;;;4055984;29;20487;-75
2023/12/07 06:59:35;;;;;;;13.13;8.13;;;1.90;83.80;;;;;;4056234;29;20053;-76
2023/12/07 07:01:37;;;;;;;14.40;8.90;;;1.80;83.70;;;;;;4056675;29;20080;-75
2023/12/07 07:03:38;;;;;;;13.27;7.63;;;1.80;84.20;;;;;;4054973;29;20053;-78
2023/12/07 07:05:40;;;;;;;12.15;7.60;;;1.80;84.10;;;;;;4055107;29;20112;-75
2023/12/07 07:07:43;;;;;;;12.98;7.70;;;1.80;84.40;;;;;;4055608;29;20145;-79
2023/12/07 07:09:45;;;;;;;12.85;8.02;;;1.80;84.10;;;;;;4057582;29;20056;-76
2023/12/07 07:11:47;;;;;;;13.32;8.35;;;1.80;84.20;;;;;;4056766;29;20144;-73
2023/12/07 07:13:49;;;;;;;14.60;7.93;;;1.80;84.20;;;;;;4056911;29;20056;-78
2023/12/07 07:15:51;;;;;;;11.50;7.20;;;1.90;84.40;;;;;;4055865;29;20053;-75
2023/12/07 07:17:53;;;;;;;14.57;7.68;;;1.90;84.20;;;;;;4055901;29;20052;-74
2023/12/07 07:19:55;;;;;;;14.00;8.35;;;1.90;84.10;;;;;;4056452;29;20048;-76
2023/12/07 07:21:57;;;;;;;13.82;7.65;;;1.70;83.80;;;;;;4055269;29;20048;-77
2023/12/07 07:24:00;;;;;;;13.55;7.85;;;1.80;83.00;;;;;;4054660;29;20514;-77
2023/12/07 07:26:02;;;;;;;12.85;7.82;;;1.70;83.30;;;;;;4054463;29;20387;-76
2023/12/07 07:28:03;;;;;;;14.00;8.25;;;1.70;83.40;;;;;;4055320;29;20060;-77
2023/12/07 07:30:08;;;;;;;15.98;8.02;;;1.70;83.60;;;;;;4054182;29;20056;-79
2023/12/07 07:32:10;;;;;;;14.30;8.48;;;1.70;83.80;;;;;;4054225;29;20052;-79
2023/12/07 07:34:12;;;;;;;11.88;7.20;;;1.70;84.30;;;;;;4054469;29;20057;-78
2023/12/07 07:36:14;;;;;;;15.25;7.63;;;1.70;83.90;;;;;;4054132;29;20399;-79
2023/12/07 07:38:16;;;;;;;12.95;7.38;;;1.70;83.70;;;;;;4053989;29;20059;-76
2023/12/07 07:40:18;;;;;;;12.10;7.20;;;1.70;83.60;;;;;;4054001;29;20052;-77
2023/12/07 07:42:20;;;;;;;11.50;7.20;;;1.80;83.60;;;;;;4054166;29;20068;-78
2023/12/07 07:44:22;;;;;;;11.32;7.38;;;1.80;83.70;;;;;;4053715;29;20100;-78
2023/12/07 07:46:25;;;;;;;11.50;7.00;;;1.80;83.70;;;;;;4053782;29;20390;-77
2023/12/07 07:48:27;;;;;;;14.18;7.80;;;1.80;83.30;;;;;;4053817;29;20048;-76
2023/12/07 07:50:29;;;;;;;12.88;7.43;;;1.80;82.70;;;;;;4053784;29;20052;-78
2023/12/07 07:52:31;;;;;;;16.00;8.70;;;1.80;82.70;;;;;;4053814;29;20390;-77
2023/12/07 07:54:34;;;;;;;12.23;7.45;;;1.80;83.40;;;;;;4053973;29;20057;-79
2023/12/07 07:56:37;;;;;;;11.80;7.40;;;1.80;83.20;;;;;;4053857;29;20108;-76
2023/12/07 07:58:39;;;;;;;14.80;7.82;;;1.80;82.90;;;;;;4054400;29;20136;-76
2023/12/07 08:00:41;;;;;;;14.05;8.82;;;1.80;82.60;;;;;;4055513;29;20104;-75
2023/12/07 08:02:43;;;;;;;13.43;8.05;;;1.80;82.40;;;;;;4054681;29;20049;-75
2023/12/07 08:04:43;;;;;;;14.30;8.32;;;1.80;82.60;;;;;;4053568;29;20104;-75
2023/12/07 08:06:45;;;;;;;11.98;7.47;;;1.80;83.00;;;;;;4053608;29;20048;-76
2023/12/07 08:08:49;;;;;;;11.48;6.78;;;1.80;83.20;;;;;;4053609;29;20109;-75
2023/12/07 08:10:51;;;;;;;14.57;8.63;;;1.90;83.20;;;;;;4053919;29;20100;-77
2023/12/07 08:12:54;;;;;;;14.40;8.13;;;1.90;82.90;;;;;;4053411;29;20048;-74
2023/12/07 08:14:56;;;;;;;13.18;7.88;;;1.90;82.70;;;;;;4053567;29;20081;-78
2023/12/07 08:16:58;;;;;;;15.80;9.25;;;1.90;82.70;;;;;;4053537;29;20048;-78
2023/12/07 08:19:00;;;;;;;12.68;8.38;;;1.90;83.10;;;;;;4053673;29;20108;-76
2023/12/07 08:21:02;;;;;;;12.98;7.22;;;1.80;83.20;;;;;;4053703;29;20057;-80
2023/12/07 08:23:04;;;;;;;14.95;8.85;;;1.90;83.30;;;;;;4053674;29;20059;-80
2023/12/07 08:25:08;;;;;;;12.70;8.35;;;1.80;83.30;;;;;;4053383;29;20100;-76
2023/12/07 08:27:10;;;;;;;13.80;8.43;;;1.90;83.30;;;;;;4053334;29;20052;-78
2023/12/07 08:29:13;;;;;;;14.43;8.52;;;1.90;83.20;;;;;;4053097;29;20044;-76
2023/12/07 08:31:15;;;;;;;12.75;8.48;;;1.90;83.10;;;;;;4053326;29;20084;-77
2023/12/07 08:33:16;;;;;;;16.85;9.38;;;1.90;83.00;;;;;;4053054;29;20099;-78
2023/12/07 08:35:18;;;;;;;18.65;10.90;;;2.00;83.00;;;;;;4053047;29;20045;-78
2023/12/07 08:37:19;;;;;;;16.88;10.00;;;2.00;82.90;;;;;;4053128;29;20108;-79
2023/12/07 08:39:21;;;;;;;17.95;10.07;;;2.00;83.00;;;;;;4053311;29;20056;-76
2023/12/07 08:41:23;;;;;;;15.48;9.48;;;2.00;83.10;;;;;;4053218;29;20558;-78
2023/12/07 08:43:25;;;;;;;15.18;9.40;;;2.00;82.50;;;;;;4053326;29;20049;-77
2023/12/07 08:45:28;;;;;;;14.93;9.00;;;2.10;82.80;;;;;;4054425;29;20055;-80
2023/12/07 08:47:31;;;;;;;13.63;8.32;;;2.10;82.60;;;;;;4053193;29;20056;-79
2023/12/07 08:49:33;;;;;;;13.82;7.93;;;2.10;82.40;;;;;;4053134;29;20048;-80
2023/12/07 08:51:34;;;;;;;14.63;8.50;;;2.20;81.90;;;;;;4053183;29;20558;-77
2023/12/07 08:53:36;;;;;;;14.00;8.30;;;2.20;81.80;;;;;;4053244;29;20056;-75
2023/12/07 08:55:38;;;;;;;15.57;8.95;;;2.20;81.80;;;;;;4053414;29;20156;-76
2023/12/07 08:57:39;;;;;;;14.82;8.10;;;2.30;82.00;;;;;;4053135;29;20131;-79
2023/12/07 08:59:40;;;;;;;13.88;9.15;;;2.30;82.10;;;;;;4053185;29;20060;-79
2023/12/07 09:01:43;;;;;;;16.50;9.10;;;2.30;81.50;;;;;;4052923;29;20052;-78
2023/12/07 09:03:45;;;;;;;15.48;9.23;;;2.40;81.60;;;;;;4053040;29;20056;-79
2023/12/07 09:05:47;;;;;;;15.05;8.90;;;2.40;81.90;;;;;;4052969;29;20052;-78
2023/12/07 09:07:48;;;;;;;17.67;9.75;;;2.40;82.30;;;;;;4053002;29;20462;-79
2023/12/07 09:09:50;;;;;;;15.40;8.63;;;2.50;82.30;;;;;;4052933;29;20056;-80
2023/12/07 09:11:52;;;;;;;14.73;9.18;;;2.50;82.10;;;;;;4053473;29;20117;-80
2023/12/07 09:13:53;;;;;;;23.52;13.50;;;2.50;82.10;;;;;;4056082;29;20052;-80
2023/12/07 09:15:55;;;;;;;39.67;11.52;;;2.50;82.10;;;;;;4056176;29;20447;-78
2023/12/07 09:17:58;;;;;;;25.70;10.50;;;2.50;82.30;;;;;;4056196;29;20053;-78
2023/12/07 09:20:01;;;;;;;26.40;10.73;;;2.50;82.20;;;;;;4055619;29;20052;-79
2023/12/07 09:22:02;;;;;;;20.38;10.20;;;2.60;82.20;;;;;;4056174;29;20133;-75
2023/12/07 09:24:05;;;;;;;21.05;9.85;;;2.60;82.20;;;;;;4055954;29;20178;-80
2023/12/07 09:26:07;;;;;;;17.70;10.73;;;2.60;82.20;;;;;;4055694;29;20053;-80
2023/12/07 09:28:09;;;;;;;17.25;10.02;;;2.60;82.20;;;;;;4056025;29;20480;-76
2023/12/07 09:30:13;;;;;;;15.38;9.70;;;2.70;82.20;;;;;;4055813;29;20056;-77
2023/12/07 09:32:14;;;;;;;17.65;10.57;;;2.70;82.00;;;;;;4055878;29;20090;-79
2023/12/07 09:34:18;;;;;;;17.58;10.32;;;2.70;81.90;;;;;;4055933;29;20383;-75
2023/12/07 09:36:21;;;;;;;17.45;10.48;;;2.70;81.70;;;;;;4056191;29;20045;-76
2023/12/07 09:38:22;;;;;;;15.73;10.15;;;2.70;81.10;;;;;;4056066;29;20135;-80
2023/12/07 09:40:25;;;;;;;16.35;8.90;;;2.70;82.00;;;;;;4056292;29;20048;-79
2023/12/07 09:42:28;;;;;;;12.95;8.32;;;2.80;81.00;;;;;;4070409;29;20048;-81
2023/12/07 09:44:29;;;;;;;18.45;9.02;;;2.80;81.00;;;;;;4055748;29;20461;-77
2023/12/07 09:46:32;;;;;;;14.05;9.07;;;2.80;80.80;;;;;;4055752;29;20144;-79
2023/12/07 09:48:34;;;;;;;13.55;8.32;;;2.90;81.00;;;;;;4055654;29;20048;-80
2023/12/07 09:50:38;;;;;;;13.40;8.52;;;2.90;80.40;;;;;;4055553;29;20088;-81
2023/12/07 09:52:39;;;;;;;14.82;8.93;;;2.90;79.50;;;;;;4055626;29;20140;-78
2023/12/07 09:54:42;;;;;;;17.38;9.25;;;2.90;79.60;;;;;;4055106;29;20063;-80
2023/12/07 09:56:45;;;;;;;15.10;9.02;;;3.00;79.70;;;;;;4055219;29;20056;-78
2023/12/07 09:58:46;;;;;;;15.63;9.00;;;3.00;79.60;;;;;;4055684;29;20045;-80
2023/12/07 10:00:49;;;;;;;13.85;8.50;;;3.00;79.50;;;;;;4055402;29;20131;-81
2023/12/07 10:02:51;;;;;;;20.77;9.13;;;3.00;79.30;;;;;;4055325;29;20075;-81
2023/12/07 10:05:05;;;;;;;18.27;9.13;;;3.00;79.50;;;;;;4055216;29;20053;-80
2023/12/07 10:07:09;;;;;;;16.48;9.32;;;3.10;79.70;;;;;;4054365;29;20405;-78
2023/12/07 10:09:12;;;;;;;15.02;8.75;;;3.10;79.60;;;;;;4054019;29;20072;-78
2023/12/07 10:11:13;;;;;;;13.90;8.35;;;3.20;79.30;;;;;;4053503;29;20562;-78
2023/12/07 10:13:17;;;;;;;12.25;8.27;;;3.10;78.90;;;;;;4053216;29;20083;-76
2023/12/07 10:15:21;;;;;;;12.35;7.68;;;3.20;78.80;;;;;;4053547;29;20048;-78
2023/12/07 10:17:23;;;;;;;15.77;8.73;;;3.20;78.30;;;;;;4053239;29;20060;-77
2023/12/07 10:19:25;;;;;;;12.05;7.70;;;3.20;78.20;;;;;;4053289;29;20510;-78
2023/12/07 10:21:33;;;;;;;12.70;7.50;;;3.20;78.20;;;;;;4053163;29;20460;-79
2023/12/07 10:23:37;;;;;;;12.15;7.88;;;3.20;78.10;;;;;;4051949;29;20087;-80
2023/12/07 10:25:41;;;;;;;12.02;7.28;;;3.30;77.70;;;;;;4053209;29;20509;-80
2023/12/07 10:27:44;;;;;;;13.57;7.65;;;3.30;77.90;;;;;;4053096;29;20063;-79
2023/12/07 10:29:46;;;;;;;20.83;8.13;;;3.30;77.90;;;;;;4053156;29;20120;-79
2023/12/07 10:31:48;;;;;;;13.52;7.43;;;3.40;77.90;;;;;;4052778;29;20462;-80
2023/12/07 10:33:50;;;;;;;15.80;8.13;;;3.40;77.80;;;;;;4053692;29;20096;-79
2023/12/07 10:35:52;;;;;;;13.77;8.73;;;3.40;77.80;;;;;;4052947;29;20056;-77
2023/12/07 10:37:54;;;;;;;15.57;8.52;;;3.40;77.80;;;;;;4053132;29;20055;-77
2023/12/07 10:39:56;;;;;;;21.92;9.20;;;3.40;78.50;;;;;;4053005;29;20089;-78
2023/12/07 10:42:03;;;;;;;14.18;8.73;;;3.50;78.60;;;;;;4053221;29;20090;-78
2023/12/07 10:44:07;;;;;;;12.35;8.23;;;3.50;78.60;;;;;;4053006;29;20502;-76
2023/12/07 10:46:10;;;;;;;13.60;8.80;;;3.50;78.30;;;;;;4052793;29;20052;-77
2023/12/07 10:48:12;;;;;;;13.73;8.48;;;3.50;78.30;;;;;;4053059;29;20049;-79
2023/12/07 10:50:18;;;;;;;20.58;9.05;;;3.50;78.50;;;;;;4052116;29;20119;-76
2023/12/07 10:52:24;;;;;;;25.98;9.98;;;3.60;78.40;;;;;;4053104;29;20049;-79
2023/12/07 10:54:36;;;;;;;26.35;9.27;;;3.70;78.70;;;;;;4052837;29;20056;-78
2023/12/07 10:56:45;;;;;;;20.67;9.40;;;3.70;78.80;;;;;;4050736;29;20099;-78
2023/12/07 10:58:49;;;;;;;14.38;8.30;;;3.70;78.90;;;;;;4052701;29;20685;-76
2023/12/07 11:00:52;;;;;;;14.90;9.35;;;3.80;78.60;;;;;;4052800;29;20073;-78
2023/12/07 11:02:53;;;;;;;13.00;8.50;;;3.80;78.40;;;;;;4052854;29;20056;-77
2023/12/07 11:04:58;;;;;;;13.25;8.65;;;3.80;78.30;;;;;;4052624;29;20053;-78
2023/12/07 11:07:08;;;;;;;20.15;9.98;;;3.80;78.20;;;;;;4052242;29;20059;-77
2023/12/07 11:09:25;;;;;;;14.35;9.23;;;3.80;78.30;;;;;;4052823;29;20068;-75
2023/12/07 11:11:32;;;;;;;12.85;8.60;;;3.90;77.90;;;;;;4052791;29;20141;-79
2023/12/07 11:13:38;;;;;;;13.38;8.48;;;3.90;77.60;;;;;;4052319;29;20060;-77
2023/12/07 11:15:40;;;;;;;14.30;9.20;;;3.90;77.70;;;;;;4052759;29;20128;-78
2023/12/07 11:17:53;;;;;;;47.10;11.48;;;4.00;77.10;;;;;;4052729;29;20525;-78
2023/12/07 11:19:57;;;;;;;53.75;10.73;;;4.00;77.60;;;;;;4052707;29;20506;-78
2023/12/07 11:21:59;;;;;;;32.10;11.02;;;4.10;77.80;;;;;;4052850;29;20052;-78
2023/12/07 11:24:02;;;;;;;15.52;8.70;;;4.10;77.60;;;;;;4052389;29;20129;-78
2023/12/07 11:26:04;;;;;;;16.00;8.40;;;4.20;77.10;;;;;;4052391;29;20565;-79
2023/12/07 11:28:09;;;;;;;18.77;8.70;;;4.20;76.00;;;;;;4052562;29;20057;-78
2023/12/07 11:30:15;;;;;;;14.18;8.13;;;4.20;75.40;;;;;;4052395;29;20465;-78
2023/12/07 11:32:17;;;;;;;14.68;8.35;;;4.30;76.10;;;;;;4052007;29;20553;-81
2023/12/07 11:34:35;;;;;;;13.43;8.90;;;4.40;75.90;;;;;;4052645;29;20053;-79
2023/12/07 11:36:37;;;;;;;15.00;9.00;;;4.50;77.20;;;;;;4052131;29;20092;-79
2023/12/07 11:39:00;;;;;;;21.85;9.20;;;4.60;77.80;;;;;;4051807;29;20049;-78
2023/12/07 11:41:03;;;;;;;14.38;8.65;;;4.60;77.30;;;;;;4051856;29;20069;-80
2023/12/07 11:43:05;;;;;;;15.02;8.43;;;4.80;76.50;;;;;;4051968;29;20080;-78
2023/12/07 11:45:07;;;;;;;16.58;9.43;;;4.90;76.40;;;;;;4051929;29;20044;-78
2023/12/07 11:47:17;;;;;;;14.30;8.57;;;4.90;76.20;;;;;;4052320;29;20068;-74
2023/12/07 11:49:19;;;;;;;14.57;7.88;;;5.00;75.90;;;;;;4052176;29;20168;-73
2023/12/07 11:51:20;;;;;;;13.80;8.05;;;5.00;75.30;;;;;;4051956;29;20331;-78
2023/12/07 11:53:23;;;;;;;13.50;8.02;;;5.10;74.60;;;;;;4052056;29;20057;-77
2023/12/07 11:55:25;;;;;;;16.13;8.00;;;5.20;74.20;;;;;;4051660;29;20052;-78
2023/12/07 11:57:27;;;;;;;16.88;8.65;;;5.30;74.60;;;;;;4049970;29;20354;-78
2023/12/07 11:59:30;;;;;;;13.30;7.15;;;5.40;74.30;;;;;;4051567;29;20108;-77
2023/12/07 12:01:32;;;;;;;16.98;7.80;;;5.60;74.10;;;;;;4051509;29;20471;-80
2023/12/07 12:03:37;;;;;;;18.98;10.25;;;5.70;73.20;;;;;;4052073;29;20501;-78
2023/12/07 12:05:40;;;;;;;14.70;8.13;;;5.80;73.40;;;;;;4051856;29;20562;-78
2023/12/07 12:07:42;;;;;;;13.32;8.00;;;6.00;72.50;;;;;;4051365;29;20056;-79
2023/12/07 12:09:44;;;;;;;14.35;9.05;;;6.10;72.00;;;;;;4051735;29;20096;-77
2023/12/07 12:11:46;;;;;;;12.82;8.20;;;6.30;71.80;;;;;;4051789;29;20108;-77
2023/12/07 12:13:49;;;;;;;12.52;7.82;;;6.40;71.20;;;;;;4051386;29;20063;-76
2023/12/07 12:15:51;;;;;;;12.43;7.10;;;6.50;72.00;;;;;;4051705;29;20132;-78
2023/12/07 12:17:54;;;;;;;10.57;6.43;;;6.60;70.80;;;;;;4051606;29;20203;-79
2023/12/07 12:19:58;;;;;;;13.20;6.70;;;6.70;69.60;;;;;;4051245;29;20053;-78
2023/12/07 12:22:02;;;;;;;12.18;6.47;;;6.70;67.70;;;;;;4052187;29;20513;-79
2023/12/07 12:24:03;;;;;;;11.35;6.10;;;6.80;68.10;;;;;;4051544;29;20057;-79
2023/12/07 12:26:07;;;;;;;11.35;6.07;;;6.90;66.60;;;;;;4056029;29;20502;-77
2023/12/07 12:28:11;;;;;;;7.68;4.43;;;7.00;66.40;;;;;;4061675;29;20081;-77
2023/12/07 12:30:13;;;;;;;7.70;4.20;;;7.10;61.50;;;;;;4057815;29;20049;-77
2023/12/07 12:32:15;;;;;;;11.45;5.93;;;7.20;62.40;;;;;;4052919;29;20131;-76
2023/12/07 12:34:17;;;;;;;8.90;4.00;;;7.30;59.00;;;;;;4051802;29;20049;-74
2023/12/07 12:36:23;;;;;;;4.90;2.83;;;7.40;57.50;;;;;;4059608;29;20089;-73
2023/12/07 12:38:24;;;;;;;17.02;9.70;;;7.60;56.10;;;;;;4055775;29;20407;-77
2023/12/07 12:40:29;;;;;;;6.35;2.90;;;7.90;54.70;;;;;;4051427;29;20044;-79
2023/12/07 12:42:30;;;;;;;4.50;2.40;;;8.10;53.90;;;;;;4052000;29;20407;-78
2023/12/07 12:44:33;;;;;;;4.57;2.17;;;8.50;53.60;;;;;;4051775;29;20057;-77
2023/12/07 12:46:37;;;;;;;3.83;2.05;;;9.20;50.90;;;;;;4053700;29;20105;-77
2023/12/07 12:48:53;;;;;;;6.05;2.60;;;12.90;45.80;;;;;;4054060;29;20411;-74
2023/12/07 12:50:55;;;;;;;4.75;2.30;;;15.20;38.30;;;;;;4053761;29;20053;-74
2023/12/07 12:52:58;;;;;;;4.43;1.98;;;15.50;34.10;;;;;;4051895;29;20052;-76
2023/12/07 12:55:00;;;;;;;4.50;1.63;;;18.00;31.50;;;;;;4051346;29;20130;-77
2023/12/07 12:57:02;;;;;;;4.72;2.22;;;18.80;27.30;;;;;;4048714;29;20056;-78
2023/12/07 12:59:04;;;;;;;6.65;3.30;;;20.60;27.10;;;;;;4048192;29;20486;-80
2023/12/07 13:01:07;;;;;;;4.40;2.38;;;22.20;24.20;;;;;;4048700;29;20064;-78
2023/12/07 13:03:12;;;;;;;4.13;2.10;;;22.50;23.30;;;;;;4050776;29;20056;-79
2023/12/07 13:05:15;;;;;;;3.13;1.45;;;24.70;21.90;;;;;;4051077;29;20054;-79
2023/12/07 13:07:17;;;;;;;3.20;1.70;;;26.00;20.20;;;;;;4051121;29;20054;-75
2023/12/07 13:09:21;;;;;;;3.30;1.60;;;27.50;19.80;;;;;;4051034;29;20131;-78
2023/12/07 13:11:22;;;;;;;4.28;1.60;;;28.20;19.00;;;;;;4050951;29;20048;-73
2023/12/07 13:13:23;;;;;;;5.00;1.73;;;29.10;18.00;;;;;;4051270;29;20056;-77
2023/12/07 13:15:26;;;;;;;3.45;1.60;;;29.40;17.60;;;;;;4052169;29;20103;-78
2023/12/07 13:17:27;;;;;;;3.70;1.60;;;29.50;16.80;;;;;;4051039;29;20383;-78
2023/12/07 13:19:29;;;;;;;3.15;1.60;;;28.40;17.10;;;;;;4050282;29;20143;-79
2023/12/07 13:21:31;;;;;;;5.82;2.92;;;27.60;17.20;;;;;;4050829;29;20129;-77
2023/12/07 13:23:33;;;;;;;5.05;1.83;;;26.90;17.60;;;;;;4050543;29;20059;-76
2023/12/07 13:25:37;;;;;;;3.95;1.80;;;26.40;17.90;;;;;;4060963;29;20490;-75
2023/12/07 13:27:39;;;;;;;3.67;1.60;;;26.40;17.80;;;;;;4050671;29;20081;-75
2023/12/07 13:29:41;;;;;;;5.10;1.80;;;26.70;17.60;;;;;;4050955;29;20541;-76
2023/12/07 13:31:43;;;;;;;3.30;1.60;;;27.50;17.50;;;;;;4050082;29;20049;-78
2023/12/07 13:33:45;;;;;;;3.35;1.80;;;28.10;16.50;;;;;;4052373;29;20060;-75
2023/12/07 13:35:47;;;;;;;4.88;1.70;;;28.10;16.40;;;;;;4053261;29;20056;-73
2023/12/07 13:37:48;;;;;;;3.30;1.60;;;27.70;16.20;;;;;;4052690;29;20458;-74
2023/12/07 13:39:55;;;;;;;2.90;1.70;;;27.00;16.60;;;;;;4052785;29;20096;-74
2023/12/07 13:41:59;;;;;;;5.00;1.77;;;26.30;16.70;;;;;;4048699;29;20079;-75
2023/12/07 13:44:01;;;;;;;6.03;2.00;;;25.50;17.20;;;;;;4052740;29;20053;-74
2023/12/07 13:46:03;;;;;;;4.88;1.98;;;24.80;17.80;;;;;;4053156;29;20139;-75
2023/12/07 13:48:06;;;;;;;5.93;2.47;;;24.20;18.40;;;;;;4052950;29;20121;-75
2023/12/07 13:50:09;;;;;;;4.68;2.50;;;23.40;18.60;;;;;;4052991;29;20049;-75
2023/12/07 13:52:09;;;;;;;7.60;2.38;;;23.00;19.40;;;;;;4052664;29;20057;-75
2023/12/07 13:54:11;;;;;;;5.13;2.25;;;22.30;19.60;;;;;;4052944;29;20104;-75
2023/12/07 13:56:13;;;;;;;5.80;2.38;;;22.50;20.40;;;;;;4053067;29;20049;-75
2023/12/07 13:58:16;;;;;;;4.60;2.00;;;22.30;20.20;;;;;;4053814;29;20093;-76
2023/12/07 14:00:19;;;;;;;3.75;2.10;;;22.60;20.30;;;;;;4055737;29;20101;-74
2023/12/07 14:02:22;;;;;;;4.10;2.08;;;23.40;19.70;;;;;;4055805;29;20502;-75
2023/12/07 14:04:24;;;;;;;5.70;3.30;;;23.60;19.60;;;;;;4056132;29;20128;-76
2023/12/07 14:06:25;;;;;;;6.53;3.83;;;23.80;19.00;;;;;;4055931;29;20053;-74
2023/12/07 14:08:27;;;;;;;10.18;6.00;;;24.50;18.70;;;;;;4055874;29;20056;-73
2023/12/07 14:10:29;;;;;;;4.72;2.55;;;24.70;18.20;;;;;;4055753;29;20049;-74
2023/12/07 14:12:33;;;;;;;5.25;2.78;;;25.30;17.80;;;;;;4058492;29;20052;-73
2023/12/07 14:14:35;;;;;;;4.22;2.30;;;26.30;17.40;;;;;;4056912;29;20140;-73
2023/12/07 14:16:37;;;;;;;4.88;2.03;;;26.50;17.10;;;;;;4055596;29;20052;-73
2023/12/07 14:18:38;;;;;;;3.83;1.90;;;25.90;17.20;;;;;;4056586;29;20049;-73
2023/12/07 14:20:42;;;;;;;4.60;2.00;;;24.50;17.40;;;;;;4056680;29;20101;-72
2023/12/07 14:22:46;;;;;;;4.18;1.80;;;22.70;19.00;;;;;;4055621;29;20091;-76
2023/12/07 14:24:48;;;;;;;3.55;1.88;;;20.70;20.50;;;;;;4055747;29;20124;-75
2023/12/07 14:26:49;;;;;;;3.55;1.95;;;19.60;22.20;;;;;;4055385;29;20132;-74
2023/12/07 14:28:51;;;;;;;3.60;1.73;;;18.40;23.10;;;;;;4055208;29;20454;-74
2023/12/07 14:30:56;;;;;;;3.97;2.03;;;17.40;24.10;;;;;;4055418;29;20116;-74
2023/12/07 14:32:58;;;;;;;3.58;1.92;;;16.60;25.20;;;;;;4055155;29;20064;-75
2023/12/07 14:35:00;;;;;;;3.92;2.03;;;16.00;25.80;;;;;;4054972;29;20109;-74
2023/12/07 14:37:02;;;;;;;4.45;2.13;;;15.30;26.50;;;;;;4055189;29;20053;-75
2023/12/07 14:39:06;;;;;;;4.40;2.05;;;14.80;27.50;;;;;;4054963;29;20498;-76
2023/12/07 14:41:08;;;;;;;4.75;2.20;;;14.40;28.00;;;;;;4053639;29;20084;-75
2023/12/07 14:43:10;;;;;;;5.45;2.17;;;13.90;29.40;;;;;;4054702;29;20052;-75
2023/12/07 14:45:13;;;;;;;3.55;1.92;;;13.40;29.40;;;;;;4054843;29;20052;-77
2023/12/07 14:47:16;;;;;;;3.55;2.00;;;13.00;30.00;;;;;;4055021;29;20064;-75
2023/12/07 14:49:20;;;;;;;4.03;2.20;;;13.50;30.20;;;;;;4056035;29;20052;-76
2023/12/07 14:51:22;;;;;;;5.30;2.97;;;14.10;29.50;;;;;;4055301;29;20438;-77
2023/12/07 14:53:24;;;;;;;5.10;2.78;;;14.20;29.40;;;;;;4054700;29;20053;-75
2023/12/07 14:55:26;;;;;;;4.63;2.47;;;13.50;29.60;;;;;;4054505;29;20048;-75
2023/12/07 14:57:28;;;;;;;4.68;2.45;;;13.00;30.50;;;;;;4054879;29;20140;-74
2023/12/07 14:59:30;;;;;;;6.93;3.42;;;12.80;31.80;;;;;;4055029;29;20458;-75
2023/12/07 15:01:32;;;;;;;5.05;3.05;;;12.20;32.50;;;;;;4055773;29;20105;-74
2023/12/07 15:03:36;;;;;;;5.53;2.88;;;11.70;33.30;;;;;;4054793;29;20400;-75
2023/12/07 15:05:37;;;;;;;6.45;3.30;;;11.30;34.20;;;;;;4056771;29;20048;-77
2023/12/07 15:07:39;;;;;;;7.55;3.33;;;11.10;35.10;;;;;;4055166;29;20454;-74
2023/12/07 15:09:41;;;;;;;7.88;3.20;;;10.90;35.90;;;;;;4056289;29;20131;-79
2023/12/07 15:11:43;;;;;;;7.45;3.25;;;10.60;37.10;;;;;;4056026;29;20482;-78
2023/12/07 15:13:44;;;;;;;6.63;3.30;;;10.30;37.40;;;;;;4051095;29;20056;-73
2023/12/07 15:15:46;;;;;;;8.85;3.60;;;10.10;38.50;;;;;;4051051;29;20064;-75
2023/12/07 15:17:48;;;;;;;8.95;3.92;;;9.90;39.00;;;;;;4051436;29;20063;-79
2023/12/07 15:19:51;;;;;;;7.43;3.47;;;9.70;39.20;;;;;;4050479;29;20048;-78
2023/12/07 15:21:52;;;;;;;5.63;3.22;;;9.50;40.40;;;;;;4052157;29;20053;-79
2023/12/07 15:23:54;;;;;;;6.45;3.42;;;9.40;40.90;;;;;;4050085;29;20112;-79
2023/12/07 15:25:56;;;;;;;8.40;4.57;;;9.10;41.20;;;;;;4051653;29;20084;-75
2023/12/07 15:27:58;;;;;;;12.38;6.55;;;8.90;41.90;;;;;;4052309;29;20048;-80
2023/12/07 15:30:00;;;;;;;22.90;12.60;;;8.80;42.60;;;;;;4053008;29;20087;-75
2023/12/07 15:32:02;;;;;;;11.52;5.85;;;8.50;43.10;;;;;;4053184;29;20060;-74
2023/12/07 15:34:04;;;;;;;9.98;4.65;;;8.40;43.20;;;;;;4051309;29;20059;-76
2023/12/07 15:36:08;;;;;;;9.52;5.32;;;8.20;43.90;;;;;;4049684;29;20048;-77
2023/12/07 15:38:11;;;;;;;10.57;4.25;;;8.00;44.70;;;;;;4050281;29;20491;-74
2023/12/07 15:40:13;;;;;;;8.40;3.75;;;7.80;44.90;;;;;;4051982;29;20609;-80
2023/12/07 15:42:15;;;;;;;8.77;4.18;;;7.60;44.90;;;;;;4051929;29;20082;-79
2023/12/07 15:44:17;;;;;;;8.32;3.97;;;7.60;46.00;;;;;;4052077;29;20049;-77
2023/12/07 15:46:18;;;;;;;8.27;4.15;;;7.40;46.30;;;;;;4051232;29;20052;-80
2023/12/07 15:48:20;;;;;;;6.38;3.63;;;7.30;46.70;;;;;;4051407;29;20049;-81
2023/12/07 15:50:22;;;;;;;6.95;3.58;;;7.20;46.40;;;;;;4051538;29;20092;-80
2023/12/07 15:52:25;;;;;;;6.53;3.55;;;7.10;47.20;;;;;;4051469;29;20097;-80
2023/12/07 15:54:27;;;;;;;7.20;3.65;;;7.00;47.40;;;;;;4051360;29;20052;-80
2023/12/07 15:56:29;;;;;;;6.82;3.60;;;6.90;47.80;;;;;;4052118;29;20108;-79
2023/12/07 15:58:31;;;;;;;6.78;3.50;;;6.80;48.20;;;;;;4051670;29;20053;-80
2023/12/07 16:00:32;;;;;;;7.60;3.40;;;6.70;48.10;;;;;;4051639;29;20148;-78
2023/12/07 16:02:35;;;;;;;6.43;3.47;;;6.60;48.00;;;;;;4051603;29;20088;-78
2023/12/07 16:04:38;;;;;;;7.35;3.65;;;6.50;48.20;;;;;;4051605;29;20163;-77
2023/12/07 16:06:40;;;;;;;6.03;3.25;;;6.40;47.90;;;;;;4051060;29;20484;-78
2023/12/07 16:08:43;;;;;;;5.97;3.40;;;6.40;48.50;;;;;;4048418;29;20053;-75
2023/12/07 16:10:45;;;;;;;6.18;3.35;;;6.30;48.70;;;;;;4051408;29;20056;-80
2023/12/07 16:12:47;;;;;;;7.28;3.80;;;6.30;49.20;;;;;;4051111;29;20513;-77
2023/12/07 16:14:48;;;;;;;7.38;4.05;;;6.20;48.80;;;;;;4051361;29;20057;-77
2023/12/07 16:16:50;;;;;;;7.10;3.83;;;6.10;49.20;;;;;;4052361;29;20498;-78
2023/12/07 16:18:52;;;;;;;7.13;3.70;;;6.00;49.00;;;;;;4051511;29;20455;-77
2023/12/07 16:20:54;;;;;;;5.80;3.30;;;6.00;49.60;;;;;;4051592;29;20801;-77
2023/12/07 16:22:56;;;;;;;7.25;3.63;;;5.80;49.70;;;;;;4051551;29;20109;-77
2023/12/07 16:24:59;;;;;;;6.43;3.83;;;5.80;50.40;;;;;;4047240;29;20056;-76
2023/12/07 16:27:01;;;;;;;6.55;3.92;;;5.80;50.30;;;;;;4051345;29;20056;-78
2023/12/07 16:29:03;;;;;;;8.38;4.70;;;5.80;50.40;;;;;;4050316;29;20058;-79
2023/12/07 16:31:07;;;;;;;7.03;4.68;;;5.70;51.30;;;;;;4051185;29;20056;-79
2023/12/07 16:33:09;;;;;;;8.50;4.25;;;5.60;50.90;;;;;;4051144;29;20056;-79
2023/12/07 16:35:11;;;;;;;8.80;4.70;;;5.60;50.40;;;;;;4051453;29;20092;-81
2023/12/07 16:37:12;;;;;;;8.60;4.53;;;5.50;51.10;;;;;;4050642;29;20151;-76
2023/12/07 16:39:15;;;;;;;11.20;6.13;;;5.50;52.30;;;;;;4050085;29;20064;-74
2023/12/07 16:41:18;;;;;;;16.90;9.70;;;5.40;52.20;;;;;;4051471;29;20112;-77